sensor_id;sensor_type;location;lat;lon;timestamp;P1;durP1;ratioP1;P2;durP2;ratioP2
71095;SDS011;58753;49.440;11.126;2022-07-03T00:01:54;2.63;;;1.67;;
71095;SDS011;58753;49.440;11.126;2022-07-03T00:04:20;3.23;;;2.10;;
71095;SDS011;58753;49.440;11.126;2022-07-03T00:15:05;3.85;;;1.58;;
71095;SDS011;58753;49.440;11.126;2022-07-03T00:17:31;3.03;;;1.90;;
71095;SDS011;58753;49.440;11.126;2022-07-03T00:19:56;2.67;;;1.80;;
71095;SDS011;58753;49.440;11.126;2022-07-03T00:27:25;2.83;;;1.97;;
71095;SDS011;58753;49.440;11.126;2022-07-03T00:32:55;3.13;;;2.10;;
71095;SDS011;58753;49.440;11.126;2022-07-03T00:35:20;3.13;;;2.00;;
71095;SDS011;58753;49.440;11.126;2022-07-03T00:40:11;3.38;;;1.73;;
71095;SDS011;58753;49.440;11.126;2022-07-03T00:45:45;2.78;;;1.70;;
71095;SDS011;58753;49.440;11.126;2022-07-03T00:50:36;2.87;;;1.87;;
71095;SDS011;58753;49.440;11.126;2022-07-03T00:53:02;4.22;;;1.70;;
71095;SDS011;58753;49.440;11.126;2022-07-03T01:06:02;3.83;;;1.40;;
71095;SDS011;58753;49.440;11.126;2022-07-03T01:08:45;4.47;;;2.00;;
71095;SDS011;58753;49.440;11.126;2022-07-03T01:27:19;3.77;;;1.60;;
71095;SDS011;58753;49.440;11.126;2022-07-03T01:32:18;4.22;;;1.80;;
71095;SDS011;58753;49.440;11.126;2022-07-03T01:40:08;2.40;;;1.42;;
71095;SDS011;58753;49.440;11.126;2022-07-03T01:52:55;2.95;;;1.77;;
71095;SDS011;58753;49.440;11.126;2022-07-03T02:08:41;3.40;;;1.92;;
71095;SDS011;58753;49.440;11.126;2022-07-03T02:11:28;3.15;;;1.70;;
71095;SDS011;58753;49.440;11.126;2022-07-03T02:27:00;2.65;;;1.90;;
71095;SDS011;58753;49.440;11.126;2022-07-03T02:29:34;2.95;;;2.08;;
71095;SDS011;58753;49.440;11.126;2022-07-03T02:34:34;3.33;;;1.67;;
71095;SDS011;58753;49.440;11.126;2022-07-03T02:44:27;2.42;;;1.40;;
71095;SDS011;58753;49.440;11.126;2022-07-03T02:47:00;3.35;;;2.08;;
71095;SDS011;58753;49.440;11.126;2022-07-03T02:54:46;4.65;;;1.88;;
71095;SDS011;58753;49.440;11.126;2022-07-03T02:57:13;2.15;;;1.35;;
71095;SDS011;58753;49.440;11.126;2022-07-03T03:10:47;2.78;;;1.40;;
71095;SDS011;58753;49.440;11.126;2022-07-03T03:13:15;2.78;;;1.50;;
71095;SDS011;58753;49.440;11.126;2022-07-03T03:28:30;2.97;;;1.48;;
71095;SDS011;58753;49.440;11.126;2022-07-03T03:30:56;2.85;;;1.70;;
71095;SDS011;58753;49.440;11.126;2022-07-03T03:33:21;2.53;;;1.50;;
71095;SDS011;58753;49.440;11.126;2022-07-03T03:35:47;5.97;;;1.58;;
71095;SDS011;58753;49.440;11.126;2022-07-03T03:38:13;2.63;;;1.40;;
71095;SDS011;58753;49.440;11.126;2022-07-03T03:48:20;2.90;;;1.42;;
71095;SDS011;58753;49.440;11.126;2022-07-03T03:50:45;3.07;;;1.70;;
71095;SDS011;58753;49.440;11.126;2022-07-03T03:53:11;3.20;;;1.90;;
71095;SDS011;58753;49.440;11.126;2022-07-03T03:59:06;2.77;;;1.53;;
71095;SDS011;58753;49.440;11.126;2022-07-03T04:01:32;3.60;;;1.80;;
71095;SDS011;58753;49.440;11.126;2022-07-03T04:03:57;4.40;;;1.50;;
71095;SDS011;58753;49.440;11.126;2022-07-03T04:06:24;3.05;;;1.85;;
71095;SDS011;58753;49.440;11.126;2022-07-03T04:08:50;3.17;;;2.10;;
71095;SDS011;58753;49.440;11.126;2022-07-03T04:11:15;4.95;;;1.88;;
71095;SDS011;58753;49.440;11.126;2022-07-03T04:19:03;3.15;;;1.73;;
71095;SDS011;58753;49.440;11.126;2022-07-03T04:21:28;3.20;;;1.80;;
71095;SDS011;58753;49.440;11.126;2022-07-03T04:23:54;3.03;;;1.87;;
71095;SDS011;58753;49.440;11.126;2022-07-03T04:26:19;3.43;;;2.00;;
71095;SDS011;58753;49.440;11.126;2022-07-03T04:33:54;3.30;;;1.80;;
71095;SDS011;58753;49.440;11.126;2022-07-03T04:41:10;4.85;;;1.80;;
71095;SDS011;58753;49.440;11.126;2022-07-03T05:03:13;3.03;;;1.50;;
71095;SDS011;58753;49.440;11.126;2022-07-03T05:08:04;3.63;;;1.60;;
71095;SDS011;58753;49.440;11.126;2022-07-03T05:10:30;3.50;;;1.75;;
71095;SDS011;58753;49.440;11.126;2022-07-03T05:15:29;2.85;;;1.70;;
71095;SDS011;58753;49.440;11.126;2022-07-03T05:17:55;3.53;;;1.60;;
71095;SDS011;58753;49.440;11.126;2022-07-03T05:20:20;4.47;;;2.97;;
71095;SDS011;58753;49.440;11.126;2022-07-03T05:25:20;3.13;;;1.87;;
71095;SDS011;58753;49.440;11.126;2022-07-03T05:27:46;3.65;;;1.73;;
71095;SDS011;58753;49.440;11.126;2022-07-03T05:30:12;3.97;;;1.43;;
71095;SDS011;58753;49.440;11.126;2022-07-03T05:32:38;2.87;;;1.70;;
71095;SDS011;58753;49.440;11.126;2022-07-03T05:35:04;4.05;;;1.73;;
71095;SDS011;58753;49.440;11.126;2022-07-03T05:37:29;2.50;;;1.45;;
71095;SDS011;58753;49.440;11.126;2022-07-03T05:42:30;2.90;;;1.58;;
71095;SDS011;58753;49.440;11.126;2022-07-03T05:49:46;3.40;;;1.98;;
71095;SDS011;58753;49.440;11.126;2022-07-03T05:58:08;4.60;;;1.55;;
71095;SDS011;58753;49.440;11.126;2022-07-03T06:00:33;4.53;;;2.00;;
71095;SDS011;58753;49.440;11.126;2022-07-03T06:02:58;4.07;;;2.10;;
71095;SDS011;58753;49.440;11.126;2022-07-03T06:12:55;3.05;;;1.60;;
71095;SDS011;58753;49.440;11.126;2022-07-03T06:15:20;3.13;;;1.87;;
71095;SDS011;58753;49.440;11.126;2022-07-03T06:17:46;3.58;;;1.65;;
71095;SDS011;58753;49.440;11.126;2022-07-03T06:20:12;3.47;;;1.37;;
71095;SDS011;58753;49.440;11.126;2022-07-03T06:27:32;5.63;;;1.70;;
71095;SDS011;58753;49.440;11.126;2022-07-03T06:29:57;1.63;;;1.00;;
71095;SDS011;58753;49.440;11.126;2022-07-03T06:32:23;2.72;;;1.33;;
71095;SDS011;58753;49.440;11.126;2022-07-03T06:37:13;3.08;;;1.58;;
71095;SDS011;58753;49.440;11.126;2022-07-03T06:42:42;2.10;;;1.00;;
71095;SDS011;58753;49.440;11.126;2022-07-03T06:45:08;2.15;;;0.98;;
71095;SDS011;58753;49.440;11.126;2022-07-03T06:47:40;2.20;;;1.40;;
71095;SDS011;58753;49.440;11.126;2022-07-03T06:50:06;2.05;;;1.20;;
71095;SDS011;58753;49.440;11.126;2022-07-03T06:52:32;2.40;;;1.38;;
71095;SDS011;58753;49.440;11.126;2022-07-03T06:57:56;3.77;;;1.40;;
71095;SDS011;58753;49.440;11.126;2022-07-03T07:00:21;2.37;;;1.17;;
71095;SDS011;58753;49.440;11.126;2022-07-03T07:05:12;2.15;;;1.13;;
71095;SDS011;58753;49.440;11.126;2022-07-03T07:12:54;3.43;;;1.17;;
71095;SDS011;58753;49.440;11.126;2022-07-03T07:15:19;2.90;;;1.48;;
71095;SDS011;58753;49.440;11.126;2022-07-03T07:17:44;3.20;;;1.10;;
71095;SDS011;58753;49.440;11.126;2022-07-03T07:20:10;3.80;;;1.43;;
71095;SDS011;58753;49.440;11.126;2022-07-03T07:26:05;2.25;;;1.20;;
71095;SDS011;58753;49.440;11.126;2022-07-03T07:28:32;3.22;;;1.15;;
71095;SDS011;58753;49.440;11.126;2022-07-03T07:30:59;2.53;;;1.27;;
71095;SDS011;58753;49.440;11.126;2022-07-03T07:33:25;2.33;;;1.13;;
71095;SDS011;58753;49.440;11.126;2022-07-03T07:38:16;2.38;;;1.30;;
71095;SDS011;58753;49.440;11.126;2022-07-03T07:40:43;2.53;;;1.30;;
71095;SDS011;58753;49.440;11.126;2022-07-03T07:43:08;2.28;;;1.17;;
71095;SDS011;58753;49.440;11.126;2022-07-03T07:45:34;2.92;;;1.40;;
71095;SDS011;58753;49.440;11.126;2022-07-03T07:47:59;3.03;;;1.43;;
71095;SDS011;58753;49.440;11.126;2022-07-03T07:50:25;4.90;;;1.10;;
71095;SDS011;58753;49.440;11.126;2022-07-03T07:52:51;1.70;;;1.10;;
71095;SDS011;58753;49.440;11.126;2022-07-03T08:13:56;2.20;;;1.13;;
71095;SDS011;58753;49.440;11.126;2022-07-03T08:16:21;1.98;;;1.15;;
71095;SDS011;58753;49.440;11.126;2022-07-03T08:18:46;1.90;;;1.07;;
71095;SDS011;58753;49.440;11.126;2022-07-03T08:21:12;2.93;;;1.57;;
71095;SDS011;58753;49.440;11.126;2022-07-03T08:27:08;3.65;;;1.23;;
71095;SDS011;58753;49.440;11.126;2022-07-03T08:29:33;2.07;;;1.20;;
71095;SDS011;58753;49.440;11.126;2022-07-03T08:31:58;1.43;;;0.90;;
71095;SDS011;58753;49.440;11.126;2022-07-03T08:34:24;1.77;;;1.20;;
71095;SDS011;58753;49.440;11.126;2022-07-03T08:41:55;2.47;;;1.38;;
71095;SDS011;58753;49.440;11.126;2022-07-03T08:44:21;1.55;;;1.00;;
71095;SDS011;58753;49.440;11.126;2022-07-03T08:46:48;2.65;;;0.82;;
71095;SDS011;58753;49.440;11.126;2022-07-03T08:49:15;2.00;;;0.83;;
71095;SDS011;58753;49.440;11.126;2022-07-03T08:51:41;1.47;;;1.03;;
71095;SDS011;58753;49.440;11.126;2022-07-03T08:54:09;1.50;;;0.75;;
71095;SDS011;58753;49.440;11.126;2022-07-03T08:56:35;2.08;;;0.70;;
71095;SDS011;58753;49.440;11.126;2022-07-03T08:59:00;1.97;;;0.80;;
71095;SDS011;58753;49.440;11.126;2022-07-03T09:06:18;1.58;;;0.50;;
71095;SDS011;58753;49.440;11.126;2022-07-03T09:08:44;2.15;;;0.70;;
71095;SDS011;58753;49.440;11.126;2022-07-03T09:13:36;1.13;;;0.50;;
71095;SDS011;58753;49.440;11.126;2022-07-03T09:16:01;1.43;;;0.40;;
71095;SDS011;58753;49.440;11.126;2022-07-03T09:18:40;1.13;;;0.60;;
71095;SDS011;58753;49.440;11.126;2022-07-03T09:21:08;2.00;;;0.80;;
71095;SDS011;58753;49.440;11.126;2022-07-03T09:23:37;1.10;;;0.63;;
71095;SDS011;58753;49.440;11.126;2022-07-03T09:31:30;1.30;;;0.60;;
71095;SDS011;58753;49.440;11.126;2022-07-03T09:34:06;1.50;;;0.65;;
71095;SDS011;58753;49.440;11.126;2022-07-03T09:36:47;1.30;;;0.70;;
71095;SDS011;58753;49.440;11.126;2022-07-03T09:59:18;3.33;;;0.80;;
71095;SDS011;58753;49.440;11.126;2022-07-03T10:01:44;1.13;;;0.50;;
71095;SDS011;58753;49.440;11.126;2022-07-03T10:04:11;1.13;;;0.77;;
71095;SDS011;58753;49.440;11.126;2022-07-03T10:06:55;1.20;;;0.88;;
71095;SDS011;58753;49.440;11.126;2022-07-03T10:09:23;1.98;;;0.68;;
71095;SDS011;58753;49.440;11.126;2022-07-03T10:11:49;1.88;;;0.70;;
71095;SDS011;58753;49.440;11.126;2022-07-03T10:14:15;1.00;;;0.60;;
71095;SDS011;58753;49.440;11.126;2022-07-03T10:16:42;1.30;;;0.45;;
71095;SDS011;58753;49.440;11.126;2022-07-03T10:19:11;1.47;;;0.60;;
71095;SDS011;58753;49.440;11.126;2022-07-03T10:21:38;1.40;;;0.65;;
71095;SDS011;58753;49.440;11.126;2022-07-03T10:24:06;1.65;;;0.50;;
71095;SDS011;58753;49.440;11.126;2022-07-03T10:26:33;1.05;;;0.60;;
71095;SDS011;58753;49.440;11.126;2022-07-03T10:28:59;1.33;;;0.50;;
71095;SDS011;58753;49.440;11.126;2022-07-03T10:31:26;1.20;;;0.80;;
71095;SDS011;58753;49.440;11.126;2022-07-03T10:33:53;0.95;;;0.60;;
71095;SDS011;58753;49.440;11.126;2022-07-03T10:57:21;1.70;;;0.50;;
71095;SDS011;58753;49.440;11.126;2022-07-03T11:20:31;1.48;;;0.75;;
71095;SDS011;58753;49.440;11.126;2022-07-03T11:25:55;0.90;;;0.30;;
71095;SDS011;58753;49.440;11.126;2022-07-03T11:36:06;1.05;;;0.30;;
71095;SDS011;58753;49.440;11.126;2022-07-03T11:40:57;0.95;;;0.50;;
71095;SDS011;58753;49.440;11.126;2022-07-03T11:43:24;0.98;;;0.43;;
71095;SDS011;58753;49.440;11.126;2022-07-03T11:45:50;1.07;;;0.50;;
71095;SDS011;58753;49.440;11.126;2022-07-03T11:48:17;0.90;;;0.70;;
71095;SDS011;58753;49.440;11.126;2022-07-03T11:50:45;1.05;;;0.40;;
71095;SDS011;58753;49.440;11.126;2022-07-03T11:53:22;0.77;;;0.40;;
71095;SDS011;58753;49.440;11.126;2022-07-03T11:58:14;0.80;;;0.47;;
71095;SDS011;58753;49.440;11.126;2022-07-03T12:03:05;0.98;;;0.50;;
71095;SDS011;58753;49.440;11.126;2022-07-03T12:05:30;1.97;;;0.40;;
71095;SDS011;58753;49.440;11.126;2022-07-03T12:08:05;0.60;;;0.30;;
71095;SDS011;58753;49.440;11.126;2022-07-03T12:12:56;0.97;;;0.50;;
71095;SDS011;58753;49.440;11.126;2022-07-03T12:17:46;1.17;;;0.40;;
71095;SDS011;58753;49.440;11.126;2022-07-03T12:22:37;0.85;;;0.45;;
71095;SDS011;58753;49.440;11.126;2022-07-03T12:25:03;0.70;;;0.33;;
71095;SDS011;58753;49.440;11.126;2022-07-03T12:27:43;0.90;;;0.57;;
71095;SDS011;58753;49.440;11.126;2022-07-03T12:32:35;1.33;;;0.40;;
71095;SDS011;58753;49.440;11.126;2022-07-03T12:37:35;1.20;;;0.50;;
71095;SDS011;58753;49.440;11.126;2022-07-03T13:02:15;0.60;;;0.40;;
71095;SDS011;58753;49.440;11.126;2022-07-03T13:04:52;1.10;;;0.70;;
71095;SDS011;58753;49.440;11.126;2022-07-03T13:12:20;1.30;;;0.60;;
71095;SDS011;58753;49.440;11.126;2022-07-03T13:14:56;0.90;;;0.40;;
71095;SDS011;58753;49.440;11.126;2022-07-03T13:19:51;1.55;;;0.40;;
71095;SDS011;58753;49.440;11.126;2022-07-03T13:22:16;1.10;;;0.40;;
71095;SDS011;58753;49.440;11.126;2022-07-03T13:35:09;0.80;;;0.43;;
71095;SDS011;58753;49.440;11.126;2022-07-03T13:37:35;0.93;;;0.50;;
71095;SDS011;58753;49.440;11.126;2022-07-03T13:43:00;1.00;;;0.40;;
71095;SDS011;58753;49.440;11.126;2022-07-03T13:45:25;1.70;;;0.40;;
71095;SDS011;58753;49.440;11.126;2022-07-03T13:47:50;1.00;;;0.50;;
71095;SDS011;58753;49.440;11.126;2022-07-03T13:50:16;1.77;;;0.57;;
71095;SDS011;58753;49.440;11.126;2022-07-03T13:56:13;1.27;;;0.40;;
71095;SDS011;58753;49.440;11.126;2022-07-03T13:58:40;0.93;;;0.50;;
71095;SDS011;58753;49.440;11.126;2022-07-03T14:03:31;0.87;;;0.37;;
71095;SDS011;58753;49.440;11.126;2022-07-03T14:08:57;1.00;;;0.70;;
71095;SDS011;58753;49.440;11.126;2022-07-03T14:11:22;3.23;;;0.40;;
71095;SDS011;58753;49.440;11.126;2022-07-03T14:13:47;0.80;;;0.40;;
71095;SDS011;58753;49.440;11.126;2022-07-03T14:16:13;1.60;;;1.10;;
71095;SDS011;58753;49.440;11.126;2022-07-03T14:21:04;0.90;;;0.40;;
71095;SDS011;58753;49.440;11.126;2022-07-03T14:23:31;0.95;;;0.40;;
71095;SDS011;58753;49.440;11.126;2022-07-03T14:28:22;0.77;;;0.40;;
71095;SDS011;58753;49.440;11.126;2022-07-03T14:34:22;0.73;;;0.38;;
71095;SDS011;58753;49.440;11.126;2022-07-03T14:36:48;1.43;;;1.03;;
71095;SDS011;58753;49.440;11.126;2022-07-03T14:39:13;0.93;;;0.60;;
71095;SDS011;58753;49.440;11.126;2022-07-03T14:41:39;1.13;;;0.30;;
71095;SDS011;58753;49.440;11.126;2022-07-03T14:44:04;3.50;;;1.30;;
71095;SDS011;58753;49.440;11.126;2022-07-03T14:46:31;2.35;;;0.90;;
71095;SDS011;58753;49.440;11.126;2022-07-03T14:48:57;3.80;;;1.77;;
71095;SDS011;58753;49.440;11.126;2022-07-03T14:51:22;1.47;;;0.57;;
71095;SDS011;58753;49.440;11.126;2022-07-03T14:53:48;1.13;;;0.50;;
71095;SDS011;58753;49.440;11.126;2022-07-03T14:56:17;1.10;;;0.50;;
71095;SDS011;58753;49.440;11.126;2022-07-03T14:58:44;0.80;;;0.47;;
71095;SDS011;58753;49.440;11.126;2022-07-03T15:01:12;0.95;;;0.65;;
71095;SDS011;58753;49.440;11.126;2022-07-03T15:15:47;1.77;;;0.60;;
71095;SDS011;58753;49.440;11.126;2022-07-03T15:18:15;1.10;;;0.70;;
71095;SDS011;58753;49.440;11.126;2022-07-03T15:20:44;0.88;;;0.30;;
71095;SDS011;58753;49.440;11.126;2022-07-03T15:23:09;1.00;;;0.65;;
71095;SDS011;58753;49.440;11.126;2022-07-03T15:25:37;0.80;;;0.50;;
71095;SDS011;58753;49.440;11.126;2022-07-03T15:28:03;1.52;;;0.70;;
71095;SDS011;58753;49.440;11.126;2022-07-03T15:30:30;0.98;;;0.60;;
71095;SDS011;58753;49.440;11.126;2022-07-03T15:32:55;1.10;;;0.70;;
71095;SDS011;58753;49.440;11.126;2022-07-03T15:54:23;2.40;;;0.68;;
71095;SDS011;58753;49.440;11.126;2022-07-03T15:56:56;1.15;;;0.70;;
71095;SDS011;58753;49.440;11.126;2022-07-03T16:05:18;1.02;;;0.60;;
71095;SDS011;58753;49.440;11.126;2022-07-03T16:07:54;10.47;;;5.37;;
71095;SDS011;58753;49.440;11.126;2022-07-03T16:10:20;5.03;;;2.47;;
71095;SDS011;58753;49.440;11.126;2022-07-03T16:20:40;10.52;;;4.85;;
71095;SDS011;58753;49.440;11.126;2022-07-03T16:23:07;5.40;;;3.50;;
71095;SDS011;58753;49.440;11.126;2022-07-03T16:25:36;2.88;;;1.88;;
71095;SDS011;58753;49.440;11.126;2022-07-03T16:28:09;3.75;;;2.30;;
71095;SDS011;58753;49.440;11.126;2022-07-03T16:30:36;8.32;;;3.80;;
71095;SDS011;58753;49.440;11.126;2022-07-03T16:33:09;8.13;;;4.13;;
71095;SDS011;58753;49.440;11.126;2022-07-03T16:35:40;13.13;;;6.57;;
71095;SDS011;58753;49.440;11.126;2022-07-03T16:38:08;9.75;;;3.83;;
71095;SDS011;58753;49.440;11.126;2022-07-03T16:40:35;5.45;;;2.35;;
71095;SDS011;58753;49.440;11.126;2022-07-03T16:46:03;1.23;;;0.90;;
71095;SDS011;58753;49.440;11.126;2022-07-03T16:48:33;2.58;;;0.90;;
71095;SDS011;58753;49.440;11.126;2022-07-03T16:51:03;0.98;;;0.63;;
71095;SDS011;58753;49.440;11.126;2022-07-03T16:53:32;1.05;;;0.55;;
71095;SDS011;58753;49.440;11.126;2022-07-03T16:56:02;1.10;;;0.80;;
71095;SDS011;58753;49.440;11.126;2022-07-03T16:58:28;1.13;;;0.40;;
71095;SDS011;58753;49.440;11.126;2022-07-03T17:00:54;0.90;;;0.40;;
71095;SDS011;58753;49.440;11.126;2022-07-03T17:03:28;1.05;;;0.65;;
71095;SDS011;58753;49.440;11.126;2022-07-03T17:05:55;1.50;;;0.70;;
71095;SDS011;58753;49.440;11.126;2022-07-03T17:08:21;1.50;;;0.80;;
71095;SDS011;58753;49.440;11.126;2022-07-03T17:10:47;1.02;;;0.60;;
71095;SDS011;58753;49.440;11.126;2022-07-03T17:13:13;1.33;;;0.60;;
71095;SDS011;58753;49.440;11.126;2022-07-03T17:15:39;0.90;;;0.70;;
71095;SDS011;58753;49.440;11.126;2022-07-03T17:18:08;1.08;;;0.60;;
71095;SDS011;58753;49.440;11.126;2022-07-03T17:20:34;1.45;;;0.47;;
71095;SDS011;58753;49.440;11.126;2022-07-03T17:23:08;1.20;;;0.47;;
71095;SDS011;58753;49.440;11.126;2022-07-03T17:25:39;1.20;;;0.47;;
71095;SDS011;58753;49.440;11.126;2022-07-03T17:28:07;0.93;;;0.37;;
71095;SDS011;58753;49.440;11.126;2022-07-03T17:33:09;1.70;;;0.90;;
71095;SDS011;58753;49.440;11.126;2022-07-03T17:35:39;1.77;;;0.77;;
71095;SDS011;58753;49.440;11.126;2022-07-03T17:41:22;6.53;;;2.55;;
71095;SDS011;58753;49.440;11.126;2022-07-03T17:43:49;1.38;;;0.60;;
71095;SDS011;58753;49.440;11.126;2022-07-03T17:46:16;1.63;;;0.73;;
71095;SDS011;58753;49.440;11.126;2022-07-03T17:53:36;2.08;;;0.47;;
71095;SDS011;58753;49.440;11.126;2022-07-03T17:56:04;1.53;;;0.30;;
71095;SDS011;58753;49.440;11.126;2022-07-03T17:58:30;1.57;;;0.60;;
71095;SDS011;58753;49.440;11.126;2022-07-03T18:00:57;1.60;;;0.60;;
71095;SDS011;58753;49.440;11.126;2022-07-03T18:03:23;1.53;;;0.40;;
71095;SDS011;58753;49.440;11.126;2022-07-03T18:08:27;1.05;;;0.50;;
71095;SDS011;58753;49.440;11.126;2022-07-03T18:10:54;0.85;;;0.57;;
71095;SDS011;58753;49.440;11.126;2022-07-03T18:13:30;1.38;;;0.60;;
71095;SDS011;58753;49.440;11.126;2022-07-03T18:16:02;0.87;;;0.40;;
71095;SDS011;58753;49.440;11.126;2022-07-03T18:22:05;3.17;;;0.95;;
71095;SDS011;58753;49.440;11.126;2022-07-03T18:24:35;0.98;;;0.40;;
71095;SDS011;58753;49.440;11.126;2022-07-03T18:29:26;0.90;;;0.30;;
71095;SDS011;58753;49.440;11.126;2022-07-03T18:37:15;1.67;;;0.60;;
71095;SDS011;58753;49.440;11.126;2022-07-03T18:39:43;0.93;;;0.47;;
71095;SDS011;58753;49.440;11.126;2022-07-03T18:42:09;1.00;;;0.40;;
71095;SDS011;58753;49.440;11.126;2022-07-03T18:44:35;2.65;;;0.60;;
71095;SDS011;58753;49.440;11.126;2022-07-03T18:49:26;1.15;;;0.50;;
71095;SDS011;58753;49.440;11.126;2022-07-03T18:51:54;1.27;;;0.50;;
71095;SDS011;58753;49.440;11.126;2022-07-03T18:54:32;0.98;;;0.38;;
71095;SDS011;58753;49.440;11.126;2022-07-03T19:09:02;0.77;;;0.30;;
71095;SDS011;58753;49.440;11.126;2022-07-03T19:11:33;1.37;;;0.50;;
71095;SDS011;58753;49.440;11.126;2022-07-03T19:14:12;1.20;;;0.50;;
71095;SDS011;58753;49.440;11.126;2022-07-03T19:16:46;1.00;;;0.50;;
71095;SDS011;58753;49.440;11.126;2022-07-03T19:19:13;1.15;;;0.50;;
71095;SDS011;58753;49.440;11.126;2022-07-03T19:30:32;1.20;;;0.60;;
71095;SDS011;58753;49.440;11.126;2022-07-03T19:32:58;1.40;;;0.60;;
71095;SDS011;58753;49.440;11.126;2022-07-03T19:35:23;2.03;;;0.60;;
71095;SDS011;58753;49.440;11.126;2022-07-03T19:37:49;1.30;;;0.60;;
71095;SDS011;58753;49.440;11.126;2022-07-03T19:43:11;1.58;;;0.73;;
71095;SDS011;58753;49.440;11.126;2022-07-03T19:45:37;0.90;;;0.43;;
71095;SDS011;58753;49.440;11.126;2022-07-03T19:48:03;2.40;;;0.53;;
71095;SDS011;58753;49.440;11.126;2022-07-03T19:50:29;1.55;;;0.50;;
71095;SDS011;58753;49.440;11.126;2022-07-03T19:52:54;1.20;;;0.53;;
71095;SDS011;58753;49.440;11.126;2022-07-03T19:55:20;0.90;;;0.30;;
71095;SDS011;58753;49.440;11.126;2022-07-03T19:57:45;1.60;;;0.63;;
71095;SDS011;58753;49.440;11.126;2022-07-03T20:07:26;1.23;;;0.40;;
71095;SDS011;58753;49.440;11.126;2022-07-03T20:09:52;2.10;;;0.57;;
71095;SDS011;58753;49.440;11.126;2022-07-03T20:28:03;2.38;;;0.80;;
71095;SDS011;58753;49.440;11.126;2022-07-03T20:30:29;1.38;;;0.55;;
71095;SDS011;58753;49.440;11.126;2022-07-03T20:32:55;1.40;;;0.80;;
71095;SDS011;58753;49.440;11.126;2022-07-03T20:35:23;3.80;;;0.70;;
71095;SDS011;58753;49.440;11.126;2022-07-03T20:37:50;0.90;;;0.43;;
71095;SDS011;58753;49.440;11.126;2022-07-03T20:56:40;6.50;;;0.97;;
71095;SDS011;58753;49.440;11.126;2022-07-03T20:59:06;1.23;;;0.73;;
71095;SDS011;58753;49.440;11.126;2022-07-03T21:01:32;1.67;;;0.52;;
71095;SDS011;58753;49.440;11.126;2022-07-03T21:11:47;1.27;;;0.50;;
71095;SDS011;58753;49.440;11.126;2022-07-03T21:14:13;3.07;;;0.67;;
71095;SDS011;58753;49.440;11.126;2022-07-03T21:16:46;1.30;;;0.80;;
71095;SDS011;58753;49.440;11.126;2022-07-03T21:19:15;2.50;;;0.60;;
71095;SDS011;58753;49.440;11.126;2022-07-03T21:21:42;1.90;;;0.80;;
71095;SDS011;58753;49.440;11.126;2022-07-03T21:24:09;1.50;;;0.90;;
71095;SDS011;58753;49.440;11.126;2022-07-03T21:26:40;2.17;;;0.50;;
71095;SDS011;58753;49.440;11.126;2022-07-03T21:29:06;5.30;;;1.33;;
71095;SDS011;58753;49.440;11.126;2022-07-03T21:40:58;2.20;;;0.75;;
71095;SDS011;58753;49.440;11.126;2022-07-03T21:43:23;2.00;;;0.73;;
71095;SDS011;58753;49.440;11.126;2022-07-03T21:48:14;1.67;;;0.90;;
71095;SDS011;58753;49.440;11.126;2022-07-03T21:53:44;1.88;;;0.90;;
71095;SDS011;58753;49.440;11.126;2022-07-03T21:56:10;1.13;;;0.53;;
71095;SDS011;58753;49.440;11.126;2022-07-03T21:58:35;1.57;;;0.80;;
71095;SDS011;58753;49.440;11.126;2022-07-03T22:01:01;1.60;;;0.80;;
71095;SDS011;58753;49.440;11.126;2022-07-03T22:03:26;4.28;;;1.08;;
71095;SDS011;58753;49.440;11.126;2022-07-03T22:08:57;1.75;;;0.68;;
71095;SDS011;58753;49.440;11.126;2022-07-03T22:11:22;3.47;;;1.30;;
71095;SDS011;58753;49.440;11.126;2022-07-03T22:13:47;1.83;;;1.00;;
71095;SDS011;58753;49.440;11.126;2022-07-03T22:16:13;1.90;;;0.90;;
71095;SDS011;58753;49.440;11.126;2022-07-03T22:26:21;2.25;;;1.00;;
71095;SDS011;58753;49.440;11.126;2022-07-03T22:28:46;2.40;;;1.10;;
71095;SDS011;58753;49.440;11.126;2022-07-03T22:31:12;2.10;;;0.90;;
71095;SDS011;58753;49.440;11.126;2022-07-03T22:33:56;1.95;;;1.02;;
71095;SDS011;58753;49.440;11.126;2022-07-03T22:36:21;1.60;;;0.90;;
71095;SDS011;58753;49.440;11.126;2022-07-03T22:38:47;1.93;;;1.10;;
71095;SDS011;58753;49.440;11.126;2022-07-03T22:41:13;1.73;;;0.88;;
71095;SDS011;58753;49.440;11.126;2022-07-03T22:43:39;2.00;;;1.17;;
71095;SDS011;58753;49.440;11.126;2022-07-03T22:46:04;2.38;;;0.80;;
71095;SDS011;58753;49.440;11.126;2022-07-03T23:09:12;2.75;;;0.70;;
71095;SDS011;58753;49.440;11.126;2022-07-03T23:11:38;1.53;;;0.90;;
71095;SDS011;58753;49.440;11.126;2022-07-03T23:14:05;3.50;;;1.08;;
71095;SDS011;58753;49.440;11.126;2022-07-03T23:16:30;1.95;;;1.10;;
71095;SDS011;58753;49.440;11.126;2022-07-03T23:33:57;2.10;;;1.00;;
71095;SDS011;58753;49.440;11.126;2022-07-03T23:36:22;1.57;;;0.93;;
71095;SDS011;58753;49.440;11.126;2022-07-03T23:38:48;2.95;;;1.10;;
71095;SDS011;58753;49.440;11.126;2022-07-03T23:41:13;1.57;;;0.80;;
71095;SDS011;58753;49.440;11.126;2022-07-03T23:43:38;1.20;;;0.60;;
71095;SDS011;58753;49.440;11.126;2022-07-03T23:48:33;2.97;;;0.90;;
71095;SDS011;58753;49.440;11.126;2022-07-03T23:53:42;1.60;;;0.70;;
71095;SDS011;58753;49.440;11.126;2022-07-03T23:56:08;1.77;;;0.87;;
